Time;durP1;ratioP1;P1;durP2;ratioP2;P2;SDS_P1;SDS_P2;PMS_P1;PMS_P2;Temp;Humidity;BMP_temperature;BMP_pressure;BME280_temperature;BME280_humidity;BME280_pressure;Samples;Min_cycle;Max_cycle;Signal;HPM_P1;HPM_P2
2023/05/03 00:00:08;;;;;;;22.40;10.45;;;5.60;74.90;;;;;;5107777;28;20032;-73
2023/05/03 00:02:38;;;;;;;21.25;9.85;;;5.40;74.50;;;;;;5118799;28;20023;-72
2023/05/03 00:05:07;;;;;;;20.15;10.05;;;5.40;73.80;;;;;;5115396;28;20023;-72
2023/05/03 00:07:33;;;;;;;20.30;10.07;;;5.40;72.70;;;;;;5117481;28;20042;-72
2023/05/03 00:09:58;;;;;;;20.55;9.98;;;5.40;72.70;;;;;;5116495;28;20107;-73
2023/05/03 00:12:24;;;;;;;19.23;10.52;;;5.30;72.60;;;;;;5118204;28;20423;-73
2023/05/03 00:14:50;;;;;;;23.13;11.20;;;5.30;71.20;;;;;;5117657;28;20348;-73
2023/05/03 00:17:16;;;;;;;18.70;10.05;;;5.30;70.60;;;;;;5117235;28;20436;-72
2023/05/03 00:19:41;;;;;;;20.05;11.75;;;5.30;70.50;;;;;;5117318;28;20070;-73
2023/05/03 00:22:07;;;;;;;22.20;10.50;;;5.20;71.70;;;;;;5100458;28;20057;-73
2023/05/03 00:24:33;;;;;;;17.10;10.05;;;5.10;71.00;;;;;;5114573;28;20309;-72
2023/05/03 00:26:59;;;;;;;18.13;9.65;;;5.00;70.90;;;;;;5115064;28;20112;-72
2023/05/03 00:29:25;;;;;;;22.10;10.75;;;5.00;69.50;;;;;;5117174;28;20051;-73
2023/05/03 00:31:51;;;;;;;16.40;8.82;;;5.00;69.50;;;;;;5114668;28;20036;-71
2023/05/03 00:34:16;;;;;;;21.48;11.10;;;5.00;69.20;;;;;;5115041;28;20023;-73
2023/05/03 00:36:42;;;;;;;19.58;10.63;;;5.10;68.70;;;;;;5097597;28;20293;-72
2023/05/03 00:39:08;;;;;;;20.52;11.48;;;5.10;68.90;;;;;;5115992;28;20298;-73
2023/05/03 00:41:34;;;;;;;21.23;11.63;;;5.00;68.80;;;;;;5115493;28;20123;-73
2023/05/03 00:44:00;;;;;;;19.17;10.02;;;5.00;68.80;;;;;;5098991;28;20227;-73
2023/05/03 00:46:25;;;;;;;21.25;11.48;;;4.90;69.80;;;;;;5114815;28;20429;-72
2023/05/03 00:48:51;;;;;;;22.23;10.18;;;4.90;69.40;;;;;;5116811;28;20020;-72
2023/05/03 00:51:19;;;;;;;21.00;10.88;;;4.80;68.80;;;;;;5116093;28;20149;-72
2023/05/03 00:53:45;;;;;;;22.30;10.75;;;4.80;68.10;;;;;;5104203;28;20027;-73
2023/05/03 00:56:10;;;;;;;22.77;11.32;;;4.80;68.80;;;;;;5116866;28;20076;-72
2023/05/03 00:58:38;;;;;;;17.55;10.00;;;4.70;68.60;;;;;;5117832;28;20301;-72
2023/05/03 01:01:06;;;;;;;18.73;10.38;;;4.70;67.90;;;;;;5115722;28;20027;-73
2023/05/03 01:03:31;;;;;;;22.33;10.75;;;4.70;67.40;;;;;;5117263;28;20434;-73
2023/05/03 01:06:20;;;;;;;19.70;10.30;;;4.70;67.80;;;;;;5116743;28;20040;-73
2023/05/03 01:09:00;;;;;;;22.90;11.75;;;4.60;67.40;;;;;;5066669;28;20048;-73
2023/05/03 01:11:49;;;;;;;20.27;10.77;;;4.60;67.10;;;;;;5116520;28;20100;-72
2023/05/03 01:14:31;;;;;;;19.38;10.57;;;4.60;66.20;;;;;;5117452;28;20101;-73
2023/05/03 01:17:08;;;;;;;18.08;10.80;;;4.60;65.90;;;;;;5111523;28;20024;-72
2023/05/03 01:19:43;;;;;;;18.45;10.45;;;4.70;66.20;;;;;;5082509;28;20324;-73
2023/05/03 01:22:31;;;;;;;22.08;11.07;;;4.70;66.60;;;;;;5115266;28;20054;-72
2023/05/03 01:25:13;;;;;;;21.27;11.65;;;4.60;66.30;;;;;;5086838;28;20055;-73
2023/05/03 01:27:41;;;;;;;19.77;10.70;;;4.60;66.30;;;;;;5093738;28;20032;-72
2023/05/03 01:30:09;;;;;;;23.50;12.10;;;4.50;66.60;;;;;;5114099;28;20027;-72
2023/05/03 01:33:07;;;;;;;20.75;11.35;;;4.50;66.10;;;;;;5114946;28;20028;-72
2023/05/03 01:36:00;;;;;;;18.77;10.70;;;4.40;65.50;;;;;;5096469;28;20428;-76
2023/05/03 01:38:27;;;;;;;27.55;13.85;;;4.40;65.60;;;;;;5108600;28;20081;-73
2023/05/03 01:40:59;;;;;;;19.60;10.73;;;4.40;65.00;;;;;;5113683;28;20026;-72
2023/05/03 01:43:25;;;;;;;21.95;12.30;;;4.40;65.20;;;;;;5094926;28;20126;-73
2023/05/03 01:45:52;;;;;;;27.17;12.13;;;4.40;64.50;;;;;;5113966;28;20118;-73
2023/05/03 01:48:18;;;;;;;21.88;12.23;;;4.50;64.50;;;;;;5114111;28;20023;-73
2023/05/03 01:50:44;;;;;;;27.35;14.02;;;4.40;64.50;;;;;;5116156;28;20031;-73
2023/05/03 01:53:10;;;;;;;29.48;13.00;;;4.40;64.40;;;;;;5111017;28;20031;-73
2023/05/03 01:55:36;;;;;;;21.92;12.23;;;4.40;64.10;;;;;;5114375;28;20019;-73
2023/05/03 01:58:07;;;;;;;24.25;13.60;;;4.40;64.00;;;;;;5096584;28;20031;-73
2023/05/03 02:00:33;;;;;;;28.23;14.38;;;4.50;63.80;;;;;;5114909;28;20344;-73
2023/05/03 02:02:58;;;;;;;25.50;13.57;;;4.50;63.60;;;;;;5114327;28;20080;-72
2023/05/03 02:05:24;;;;;;;27.48;14.77;;;4.50;63.80;;;;;;5097178;28;20086;-73
2023/05/03 02:07:50;;;;;;;27.90;14.00;;;4.50;63.90;;;;;;5111822;28;20023;-73
2023/05/03 02:10:16;;;;;;;26.67;13.70;;;4.40;64.50;;;;;;5114895;28;20102;-72
2023/05/03 02:12:42;;;;;;;27.80;12.43;;;4.40;63.90;;;;;;5111517;28;20059;-73
2023/05/03 02:15:08;;;;;;;22.90;13.63;;;4.30;64.30;;;;;;5108904;28;20049;-72
2023/05/03 02:17:34;;;;;;;24.67;14.50;;;4.30;63.30;;;;;;5114544;28;20316;-73
2023/05/03 02:20:00;;;;;;;19.95;11.75;;;4.40;63.60;;;;;;5114651;28;20024;-73
2023/05/03 02:22:25;;;;;;;25.38;14.30;;;4.40;63.40;;;;;;5112945;28;20034;-73
2023/05/03 02:24:51;;;;;;;24.98;13.25;;;4.40;63.00;;;;;;5113268;28;20031;-73
2023/05/03 02:27:16;;;;;;;30.35;16.25;;;4.40;63.90;;;;;;5110724;28;20028;-72
2023/05/03 02:29:42;;;;;;;29.92;14.27;;;4.40;63.30;;;;;;5107027;28;20107;-72
2023/05/03 02:32:08;;;;;;;28.20;15.85;;;4.50;62.40;;;;;;5108619;28;20035;-73
2023/05/03 02:34:33;;;;;;;25.88;14.45;;;4.60;62.30;;;;;;5113054;28;20023;-73
2023/05/03 02:36:59;;;;;;;28.90;14.45;;;4.70;62.10;;;;;;5113010;28;20030;-72
2023/05/03 02:39:24;;;;;;;27.83;15.05;;;4.70;62.60;;;;;;5110843;28;20431;-73
2023/05/03 02:41:50;;;;;;;28.42;15.15;;;4.70;62.90;;;;;;5096893;28;20348;-73
2023/05/03 02:44:16;;;;;;;28.48;14.60;;;4.70;63.50;;;;;;5111148;28;20423;-72
2023/05/03 02:46:41;;;;;;;24.58;14.23;;;4.60;63.50;;;;;;5114548;28;20032;-74
2023/05/03 02:49:08;;;;;;;24.35;13.70;;;4.50;63.70;;;;;;5113114;28;20432;-72
2023/05/03 02:51:34;;;;;;;34.75;16.48;;;4.40;63.30;;;;;;5111891;28;20115;-73
2023/05/03 02:54:00;;;;;;;28.55;15.65;;;4.50;62.70;;;;;;5107763;28;20036;-73
2023/05/03 02:56:25;;;;;;;25.33;14.32;;;4.40;62.90;;;;;;5112346;28;20084;-73
2023/05/03 02:58:51;;;;;;;26.15;14.30;;;4.40;63.00;;;;;;5111384;28;20012;-73
2023/05/03 03:01:17;;;;;;;23.65;13.98;;;4.30;63.70;;;;;;5090509;28;20081;-74
2023/05/03 03:03:42;;;;;;;24.92;14.68;;;4.30;63.40;;;;;;5112424;28;20032;-73
2023/05/03 03:06:08;;;;;;;26.67;14.90;;;4.30;63.10;;;;;;5094422;28;20114;-72
2023/05/03 03:08:35;;;;;;;25.73;14.27;;;4.30;63.30;;;;;;5099004;28;20027;-72
2023/05/03 03:11:00;;;;;;;23.75;13.68;;;4.30;63.10;;;;;;5118912;28;20476;-72
2023/05/03 03:13:26;;;;;;;23.90;13.15;;;4.30;62.40;;;;;;5114718;28;20107;-73
2023/05/03 03:15:51;;;;;;;25.83;13.82;;;4.30;63.20;;;;;;5115144;28;20076;-72
2023/05/03 03:18:17;;;;;;;24.70;14.05;;;4.20;63.10;;;;;;5115206;28;20502;-73
2023/05/03 03:20:43;;;;;;;30.05;15.48;;;4.20;63.20;;;;;;5112171;28;20024;-74
2023/05/03 03:23:08;;;;;;;24.10;13.82;;;4.20;62.60;;;;;;5111467;28;20034;-72
2023/05/03 03:25:34;;;;;;;26.70;15.00;;;4.20;62.70;;;;;;5115105;28;20024;-73
2023/05/03 03:27:59;;;;;;;34.67;15.90;;;4.20;63.10;;;;;;5095192;28;20031;-72
2023/05/03 03:30:25;;;;;;;32.20;16.75;;;4.20;63.10;;;;;;5111605;28;20031;-72
2023/05/03 03:32:51;;;;;;;29.98;15.60;;;4.10;63.40;;;;;;5116207;28;20035;-73
2023/05/03 03:35:19;;;;;;;32.30;16.13;;;4.00;63.80;;;;;;5096813;28;20020;-73
2023/05/03 03:37:45;;;;;;;31.02;17.02;;;3.90;63.80;;;;;;5115088;28;20020;-73
2023/05/03 03:40:11;;;;;;;27.20;15.30;;;3.90;62.70;;;;;;5114853;28;20050;-72
2023/05/03 03:42:36;;;;;;;31.83;16.13;;;3.90;62.40;;;;;;5112375;28;20114;-73
2023/05/03 03:45:03;;;;;;;31.83;16.33;;;3.90;62.50;;;;;;5116220;28;20150;-72
2023/05/03 03:47:31;;;;;;;30.23;16.35;;;3.90;63.00;;;;;;5110516;28;20038;-72
2023/05/03 03:50:01;;;;;;;35.60;17.70;;;3.80;62.60;;;;;;5099353;27;20023;-72
2023/05/03 03:52:27;;;;;;;27.73;14.52;;;3.80;62.50;;;;;;5112654;27;20059;-73
2023/05/03 03:54:53;;;;;;;27.73;15.55;;;3.80;62.20;;;;;;5089131;28;20028;-72
2023/05/03 03:57:19;;;;;;;37.10;18.77;;;3.80;62.70;;;;;;5114691;28;20031;-74
2023/05/03 03:59:44;;;;;;;33.08;17.42;;;3.80;62.10;;;;;;5113703;28;20033;-73
2023/05/03 04:02:11;;;;;;;32.85;16.35;;;3.90;61.60;;;;;;5110565;27;20070;-74
2023/05/03 04:04:37;;;;;;;33.55;17.83;;;4.00;61.50;;;;;;5110854;27;20035;-73
2023/05/03 04:07:03;;;;;;;38.03;18.75;;;4.00;61.70;;;;;;5116885;28;20024;-73
2023/05/03 04:09:29;;;;;;;37.67;18.45;;;4.10;61.50;;;;;;5115264;28;20034;-74
2023/05/03 04:11:55;;;;;;;32.90;17.17;;;4.10;61.70;;;;;;5114941;28;20057;-73
2023/05/03 04:14:27;;;;;;;28.67;17.23;;;4.00;62.80;;;;;;5115652;28;20028;-73
2023/05/03 04:16:53;;;;;;;25.75;14.40;;;3.80;63.10;;;;;;5097928;28;20324;-74
2023/05/03 04:19:24;;;;;;;27.55;15.98;;;3.70;63.30;;;;;;5115243;28;20030;-74
2023/05/03 04:21:55;;;;;;;31.13;15.10;;;3.60;62.90;;;;;;5116291;28;20050;-74
2023/05/03 04:24:21;;;;;;;32.10;16.13;;;3.60;62.30;;;;;;5114986;28;20023;-73
2023/05/03 04:26:47;;;;;;;33.53;15.80;;;3.60;62.20;;;;;;5099366;28;20034;-73
2023/05/03 04:29:13;;;;;;;37.08;17.77;;;3.60;61.90;;;;;;5116692;28;20104;-73
2023/05/03 04:31:42;;;;;;;29.50;14.35;;;3.80;61.30;;;;;;5114928;28;20022;-74
2023/05/03 04:34:09;;;;;;;32.50;16.42;;;4.00;61.10;;;;;;5105682;28;20023;-73
2023/05/03 04:36:43;;;;;;;33.30;17.27;;;4.10;61.30;;;;;;5118020;28;20039;-74
2023/05/03 04:39:11;;;;;;;;;;;4.20;61.10;;;;;;5116187;28;20019;-73
2023/05/03 04:41:44;;;;;;;32.30;17.73;;;4.40;61.00;;;;;;5116717;28;19961;-74
2023/05/03 04:44:14;;;;;;;25.00;15.07;;;4.50;60.70;;;;;;5116601;28;20035;-73
2023/05/03 04:46:40;;;;;;;28.40;16.20;;;4.80;60.50;;;;;;5097196;28;20356;-74
2023/05/03 04:49:07;;;;;;;31.10;16.38;;;5.00;60.50;;;;;;5116681;28;20412;-74
2023/05/03 04:51:37;;;;;;;32.75;16.33;;;5.10;60.50;;;;;;5117627;28;20047;-74
2023/05/03 04:54:06;;;;;;;34.65;17.75;;;5.40;60.40;;;;;;5115244;28;20062;-74
2023/05/03 04:56:34;;;;;;;26.50;14.98;;;5.50;60.30;;;;;;5115759;28;20028;-74
2023/05/03 04:59:00;;;;;;;26.83;15.00;;;5.70;60.10;;;;;;5116503;28;20032;-74
2023/05/03 05:01:27;;;;;;;29.17;19.15;;;5.70;60.50;;;;;;5094877;28;20143;-74
2023/05/03 05:03:53;;;;;;;29.52;20.33;;;5.80;60.40;;;;;;5116800;28;20302;-74
2023/05/03 05:06:19;;;;;;;25.90;16.13;;;5.90;60.60;;;;;;5112699;28;20028;-74
2023/05/03 05:08:45;;;;;;;27.65;15.93;;;6.00;60.30;;;;;;5109522;28;20124;-73
2023/05/03 05:11:15;;;;;;;29.02;16.65;;;6.20;60.50;;;;;;5111186;28;20340;-72
2023/05/03 05:13:41;;;;;;;33.78;19.45;;;6.30;60.20;;;;;;5115451;28;20084;-73
2023/05/03 05:16:07;;;;;;;25.50;16.85;;;6.40;60.40;;;;;;5110001;28;20024;-72
2023/05/03 05:18:33;;;;;;;25.48;17.95;;;6.40;60.30;;;;;;5116813;28;20107;-72
2023/05/03 05:21:00;;;;;;;24.85;16.73;;;6.50;60.30;;;;;;5113769;28;20038;-73
2023/05/03 05:23:26;;;;;;;25.55;16.15;;;6.60;60.20;;;;;;5109669;28;20024;-73
2023/05/03 05:25:59;;;;;;;36.30;20.75;;;6.70;60.20;;;;;;5095361;28;20063;-73
2023/05/03 05:28:28;;;;;;;29.90;19.20;;;6.90;60.30;;;;;;5096429;28;20031;-73
2023/05/03 05:30:54;;;;;;;32.03;19.65;;;6.90;60.70;;;;;;5116742;28;20074;-73
2023/05/03 05:33:19;;;;;;;34.28;20.75;;;7.00;60.70;;;;;;5113448;28;20556;-73
2023/05/03 05:35:47;;;;;;;34.80;21.98;;;7.10;60.40;;;;;;5114295;28;20065;-73
2023/05/03 05:38:14;;;;;;;43.72;23.48;;;7.20;61.00;;;;;;5107295;28;20027;-73
2023/05/03 05:40:40;;;;;;;30.13;19.55;;;7.20;61.60;;;;;;5116674;28;20027;-73
2023/05/03 05:43:06;;;;;;;35.58;21.75;;;7.20;61.00;;;;;;5115436;28;20048;-73
2023/05/03 05:45:33;;;;;;;41.50;24.98;;;7.30;60.90;;;;;;5115667;28;20032;-73
2023/05/03 05:47:59;;;;;;;49.17;25.92;;;7.40;61.90;;;;;;5116607;28;20020;-74
2023/05/03 05:50:25;;;;;;;38.05;23.80;;;7.50;62.10;;;;;;5098514;28;20042;-73
2023/05/03 05:52:54;;;;;;;44.03;25.65;;;7.60;61.80;;;;;;5114540;28;20733;-74
2023/05/03 05:55:20;;;;;;;40.67;23.40;;;7.70;62.70;;;;;;5109082;28;20024;-73
2023/05/03 05:57:45;;;;;;;29.42;19.65;;;7.60;66.60;;;;;;5113147;28;20019;-73
2023/05/03 06:00:16;;;;;;;31.35;20.63;;;7.40;65.70;;;;;;5113972;28;20031;-73
2023/05/03 06:02:42;;;;;;;36.42;23.88;;;7.60;63.00;;;;;;5111791;28;20062;-73
2023/05/03 06:05:08;;;;;;;37.10;22.80;;;7.90;63.00;;;;;;5116442;28;20019;-73
2023/05/03 06:07:34;;;;;;;28.60;20.30;;;8.10;65.00;;;;;;5110610;28;20365;-73
2023/05/03 06:09:59;;;;;;;26.55;18.77;;;8.30;63.60;;;;;;5077729;28;20273;-73
2023/05/03 06:12:26;;;;;;;24.90;18.30;;;8.40;66.30;;;;;;5108587;28;20027;-73
2023/05/03 06:14:51;;;;;;;25.90;18.13;;;8.50;68.50;;;;;;5115215;28;20365;-74
2023/05/03 06:17:17;;;;;;;26.33;17.38;;;8.50;71.40;;;;;;5111794;28;20098;-73
2023/05/03 06:19:44;;;;;;;22.48;16.05;;;8.70;74.00;;;;;;5113409;28;20020;-73
2023/05/03 06:22:10;;;;;;;23.40;16.58;;;8.90;75.60;;;;;;5112305;28;20328;-73
2023/05/03 06:24:35;;;;;;;21.70;16.67;;;9.00;83.70;;;;;;5108046;28;20030;-73
2023/05/03 06:27:01;;;;;;;20.52;15.32;;;9.20;86.50;;;;;;5115642;28;20036;-73
2023/05/03 06:29:28;;;;;;;19.80;14.70;;;9.30;88.60;;;;;;5113511;28;20110;-73
2023/05/03 06:31:54;;;;;;;22.77;16.42;;;9.50;89.00;;;;;;5114716;28;20027;-74
2023/05/03 06:34:20;;;;;;;20.50;15.65;;;9.70;92.80;;;;;;5112435;28;20057;-73
2023/05/03 06:36:46;;;;;;;20.58;14.30;;;9.90;93.30;;;;;;5114221;28;20020;-73
2023/05/03 06:39:12;;;;;;;18.65;14.07;;;10.20;96.50;;;;;;5114970;28;20049;-73
2023/05/03 06:41:38;;;;;;;20.30;15.45;;;10.40;98.00;;;;;;5096756;28;20538;-73
2023/05/03 06:44:05;;;;;;;30.15;20.60;;;10.50;98.00;;;;;;5105782;28;20031;-73
2023/05/03 06:46:32;;;;;;;21.02;15.68;;;10.40;98.00;;;;;;5109005;28;20450;-73
2023/05/03 06:48:57;;;;;;;20.00;14.43;;;10.50;98.00;;;;;;5106981;28;20015;-73
2023/05/03 06:51:27;;;;;;;20.98;14.20;;;10.60;98.00;;;;;;5108666;28;20093;-73
2023/05/03 06:54:05;;;;;;;20.65;14.18;;;10.80;98.00;;;;;;5108290;28;20032;-73
2023/05/03 06:56:31;;;;;;;22.00;15.38;;;11.10;98.00;;;;;;5105707;28;20025;-73
2023/05/03 06:58:57;;;;;;;20.77;14.88;;;11.40;98.00;;;;;;5094975;28;20032;-73
2023/05/03 07:01:23;;;;;;;18.17;13.23;;;11.30;98.00;;;;;;5099380;28;20036;-73
2023/05/03 07:03:48;;;;;;;21.40;14.63;;;11.20;98.00;;;;;;5119930;28;20023;-74
2023/05/03 07:06:15;;;;;;;19.77;13.82;;;10.90;98.00;;;;;;5116832;28;20077;-73
2023/05/03 07:08:41;;;;;;;20.63;15.25;;;10.60;98.00;;;;;;5096418;28;20027;-73
2023/05/03 07:11:07;;;;;;;19.25;14.00;;;10.60;98.00;;;;;;5109006;27;20036;-75
2023/05/03 07:13:32;;;;;;;19.88;14.98;;;10.80;98.00;;;;;;5095221;28;20407;-75
2023/05/03 07:15:59;;;;;;;20.25;15.02;;;10.90;98.00;;;;;;5077029;28;20434;-74
2023/05/03 07:18:25;;;;;;;21.50;15.05;;;10.90;98.00;;;;;;5094987;28;20058;-74
2023/05/03 07:20:51;;;;;;;21.50;15.30;;;10.90;98.00;;;;;;5099956;28;20054;-74
2023/05/03 07:23:17;;;;;;;22.10;13.95;;;11.10;98.00;;;;;;5095250;28;20043;-74
2023/05/03 07:25:43;;;;;;;22.40;16.05;;;11.40;98.00;;;;;;5111129;28;20023;-75
2023/05/03 07:28:10;;;;;;;19.70;14.43;;;11.50;98.00;;;;;;5107968;28;20071;-74
2023/05/03 07:30:36;;;;;;;19.73;14.02;;;11.50;98.00;;;;;;5110525;28;20028;-74
2023/05/03 07:33:02;;;;;;;23.88;16.42;;;11.40;98.00;;;;;;5117284;28;20050;-74
2023/05/03 07:35:28;;;;;;;22.05;16.33;;;11.10;98.00;;;;;;5113933;28;20412;-74
2023/05/03 07:37:55;;;;;;;19.17;13.95;;;10.90;98.00;;;;;;5111730;28;20089;-74
2023/05/03 07:40:21;;;;;;;19.80;14.38;;;11.10;98.00;;;;;;5116978;27;20027;-74
2023/05/03 07:42:47;;;;;;;19.13;13.18;;;11.60;98.00;;;;;;5118275;28;20390;-74
2023/05/03 07:45:13;;;;;;;22.63;14.05;;;12.50;98.00;;;;;;5119379;28;20024;-74
2023/05/03 07:47:39;;;;;;;18.48;13.27;;;13.10;95.70;;;;;;5118284;28;20035;-74
2023/05/03 07:50:05;;;;;;;20.05;12.30;;;13.50;95.50;;;;;;5119225;28;20038;-74
2023/05/03 07:52:42;;;;;;;17.25;12.73;;;13.90;94.10;;;;;;5117046;28;20043;-74
2023/05/03 07:55:08;;;;;;;16.70;11.77;;;14.60;91.60;;;;;;5118164;28;20026;-74
2023/05/03 07:57:35;;;;;;;16.58;12.30;;;14.30;92.30;;;;;;5119149;28;20332;-74
2023/05/03 08:00:01;;;;;;;17.42;12.30;;;14.30;91.90;;;;;;5124608;27;20045;-74
2023/05/03 08:02:26;;;;;;;17.45;12.60;;;14.10;92.40;;;;;;5132934;27;20027;-74
2023/05/03 08:04:53;;;;;;;16.25;12.18;;;13.90;92.80;;;;;;5133812;27;20023;-74
2023/05/03 08:07:19;;;;;;;20.60;12.55;;;14.00;93.00;;;;;;5118862;28;20019;-74
2023/05/03 08:09:45;;;;;;;22.23;14.07;;;13.90;92.90;;;;;;5117725;28;20321;-74
2023/05/03 08:12:10;;;;;;;17.98;13.15;;;14.40;91.80;;;;;;5118764;28;20103;-74
2023/05/03 08:14:36;;;;;;;15.75;11.27;;;14.20;92.00;;;;;;5118758;28;20323;-74
2023/05/03 08:17:03;;;;;;;17.55;12.40;;;14.00;92.70;;;;;;5118875;28;20020;-74
2023/05/03 08:19:29;;;;;;;16.65;12.45;;;13.90;92.80;;;;;;5117566;28;20035;-74
2023/05/03 08:21:55;;;;;;;18.58;13.07;;;13.90;93.50;;;;;;5118675;28;20490;-74
2023/05/03 08:24:22;;;;;;;17.45;13.38;;;13.70;93.20;;;;;;5117441;28;20023;-74
2023/05/03 08:26:47;;;;;;;18.83;13.55;;;13.50;94.40;;;;;;5100387;28;20026;-74
2023/05/03 08:29:14;;;;;;;18.75;12.77;;;13.20;94.90;;;;;;5116830;28;20365;-74
2023/05/03 08:31:39;;;;;;;18.13;12.35;;;13.50;95.70;;;;;;5100318;28;20019;-74
2023/05/03 08:34:06;;;;;;;18.27;11.75;;;14.70;93.60;;;;;;5117088;28;20089;-74
2023/05/03 08:36:32;;;;;;;17.95;12.27;;;15.30;91.80;;;;;;5118326;28;20027;-74
2023/05/03 08:38:58;;;;;;;16.20;11.90;;;15.70;88.90;;;;;;5098997;28;20015;-74
2023/05/03 08:41:33;;;;;;;18.10;12.23;;;15.30;89.40;;;;;;5118272;28;20308;-74
2023/05/03 08:44:00;;;;;;;22.60;13.73;;;14.80;90.40;;;;;;5118203;28;20035;-74
2023/05/03 08:46:27;;;;;;;19.38;12.52;;;13.70;93.20;;;;;;5118086;28;20035;-74
2023/05/03 08:48:53;;;;;;;16.45;11.55;;;13.80;94.30;;;;;;5116981;28;20356;-74
2023/05/03 08:51:21;;;;;;;17.65;13.18;;;14.30;93.80;;;;;;5117964;28;20024;-74
2023/05/03 08:53:47;;;;;;;18.25;12.95;;;14.10;92.70;;;;;;5098591;28;20065;-74
2023/05/03 08:56:29;;;;;;;20.02;13.05;;;14.30;93.50;;;;;;5117883;28;20024;-74
2023/05/03 08:58:55;;;;;;;19.50;14.23;;;15.30;91.20;;;;;;5117805;28;20023;-74
2023/05/03 09:01:20;;;;;;;20.08;14.75;;;14.70;90.90;;;;;;5117860;28;20153;-74
2023/05/03 09:03:50;;;;;;;16.33;12.30;;;14.70;92.40;;;;;;5116022;27;20106;-74
2023/05/03 09:06:25;;;;;;;15.40;11.85;;;15.60;90.60;;;;;;5099680;28;20471;-74
2023/05/03 09:08:50;;;;;;;18.65;13.38;;;16.10;88.60;;;;;;5116687;28;21062;-74
2023/05/03 09:11:21;;;;;;;18.40;13.57;;;16.20;88.00;;;;;;5117621;28;20032;-73
2023/05/03 09:13:46;;;;;;;18.45;12.77;;;15.50;89.90;;;;;;5117361;28;20077;-73
2023/05/03 09:16:21;;;;;;;16.02;11.95;;;16.00;89.60;;;;;;5117650;28;20028;-73
2023/05/03 09:19:03;;;;;;;15.40;11.25;;;16.30;88.70;;;;;;5098517;28;20022;-73
2023/05/03 09:21:32;;;;;;;13.93;11.02;;;16.80;88.00;;;;;;5117555;28;20108;-72
2023/05/03 09:23:58;;;;;;;14.55;11.57;;;16.80;87.00;;;;;;5116378;28;20031;-72
2023/05/03 09:26:34;;;;;;;15.63;11.82;;;16.80;87.10;;;;;;5117223;28;20035;-72
2023/05/03 09:29:04;;;;;;;16.90;12.73;;;16.40;88.00;;;;;;5117285;28;20031;-73
2023/05/03 09:31:31;;;;;;;18.15;12.38;;;16.30;88.80;;;;;;5116328;28;20419;-73
2023/05/03 09:33:57;;;;;;;17.10;12.90;;;16.80;87.50;;;;;;5117218;28;20038;-73
2023/05/03 09:36:24;;;;;;;18.05;12.88;;;17.10;86.10;;;;;;5117277;28;20027;-73
2023/05/03 09:38:50;;;;;;;15.32;12.50;;;16.80;87.40;;;;;;5115893;28;20404;-73
2023/05/03 09:41:29;;;;;;;17.42;13.07;;;16.90;87.60;;;;;;5116971;28;20015;-73
2023/05/03 09:44:01;;;;;;;16.42;12.38;;;16.60;86.60;;;;;;5117268;28;20050;-73
2023/05/03 09:46:30;;;;;;;19.02;12.68;;;16.30;88.40;;;;;;5116027;28;20028;-73
2023/05/03 09:48:57;;;;;;;15.13;11.88;;;17.00;87.20;;;;;;5116874;28;20323;-73
2023/05/03 09:51:23;;;;;;;15.18;11.98;;;17.60;85.20;;;;;;5114974;28;20073;-73
2023/05/03 09:53:49;;;;;;;17.20;13.27;;;18.70;82.00;;;;;;5096662;28;20065;-72
2023/05/03 09:56:19;;;;;;;15.52;12.80;;;19.20;80.50;;;;;;5116730;28;20297;-72
2023/05/03 09:58:46;;;;;;;16.73;12.15;;;18.90;80.10;;;;;;5116680;28;20419;-73
2023/05/03 10:01:14;;;;;;;15.98;12.73;;;19.10;80.90;;;;;;5114793;28;20288;-72
2023/05/03 10:03:42;;;;;;;18.00;12.93;;;19.20;80.20;;;;;;5115653;28;20064;-74
2023/05/03 10:06:22;;;;;;;12.70;9.75;;;18.90;80.70;;;;;;5116031;28;20023;-73
2023/05/03 10:08:55;;;;;;;14.07;10.35;;;19.60;80.10;;;;;;5114078;28;20020;-74
2023/05/03 10:11:25;;;;;;;13.57;10.82;;;21.00;75.70;;;;;;5114839;28;20028;-74
2023/05/03 10:13:54;;;;;;;15.48;11.75;;;21.30;76.70;;;;;;5116521;28;20030;-73
2023/05/03 10:16:25;;;;;;;14.15;10.93;;;21.30;73.80;;;;;;5115609;28;20028;-73
2023/05/03 10:18:57;;;;;;;13.80;10.75;;;20.50;76.10;;;;;;5115725;28;20092;-73
2023/05/03 10:21:41;;;;;;;15.07;12.23;;;21.00;74.50;;;;;;5114605;28;20108;-73
2023/05/03 10:24:12;;;;;;;14.65;12.65;;;20.50;75.50;;;;;;5115243;28;20104;-74
2023/05/03 10:26:43;;;;;;;17.77;12.88;;;19.50;77.50;;;;;;5112672;28;20031;-73
2023/05/03 10:29:34;;;;;;;17.38;14.05;;;19.60;78.10;;;;;;5098381;28;20115;-73
2023/05/03 10:32:01;;;;;;;17.65;13.98;;;17.70;82.50;;;;;;5097130;28;20036;-73
2023/05/03 10:34:38;;;;;;;18.08;13.98;;;17.70;84.10;;;;;;5115256;28;20020;-73
2023/05/03 10:37:09;;;;;;;18.20;11.95;;;18.30;82.30;;;;;;5115396;28;20533;-73
2023/05/03 10:39:35;;;;;;;15.00;12.32;;;18.70;81.40;;;;;;5113823;28;20019;-73
2023/05/03 10:42:07;;;;;;;16.98;12.27;;;19.00;80.10;;;;;;5118382;28;20149;-73
2023/05/03 10:44:53;;;;;;;12.82;10.75;;;19.20;78.60;;;;;;5117176;28;20327;-74
2023/05/03 10:47:22;;;;;;;13.02;9.70;;;19.60;80.70;;;;;;5114051;28;20023;-73
2023/05/03 10:50:10;;;;;;;12.02;9.55;;;20.40;76.80;;;;;;5113254;28;20023;-73
2023/05/03 10:52:38;;;;;;;13.35;9.98;;;20.80;73.80;;;;;;5114814;28;20347;-73
2023/05/03 10:55:12;;;;;;;14.50;10.13;;;20.20;75.40;;;;;;5115841;28;20024;-73
2023/05/03 10:57:42;;;;;;;13.70;10.90;;;19.40;75.90;;;;;;5114610;28;20119;-74
2023/05/03 11:00:15;;;;;;;19.02;11.63;;;19.40;77.10;;;;;;5098049;28;20063;-73
2023/05/03 11:03:02;;;;;;;15.05;12.10;;;19.50;76.60;;;;;;5114154;28;20076;-73
2023/05/03 11:05:30;;;;;;;17.35;11.60;;;19.20;78.20;;;;;;5116075;28;20019;-73
2023/05/03 11:08:19;;;;;;;13.10;10.27;;;18.40;78.20;;;;;;5113687;28;20051;-73
2023/05/03 11:10:46;;;;;;;16.55;12.25;;;18.20;80.70;;;;;;5115975;28;20049;-73
2023/05/03 11:13:12;;;;;;;14.70;11.88;;;18.10;80.40;;;;;;5115536;28;20028;-73
2023/05/03 11:15:38;;;;;;;15.30;12.45;;;18.40;79.60;;;;;;5113342;28;20434;-73
2023/05/03 11:18:08;;;;;;;14.65;10.68;;;18.30;79.60;;;;;;5114151;28;20031;-73
2023/05/03 11:20:35;;;;;;;12.40;9.73;;;17.80;80.40;;;;;;5110958;28;20028;-73
2023/05/03 11:23:01;;;;;;;18.23;12.52;;;17.70;82.60;;;;;;5107013;28;20019;-73
2023/05/03 11:25:27;;;;;;;13.07;9.93;;;18.70;79.00;;;;;;5114842;28;20027;-73
2023/05/03 11:27:53;;;;;;;13.48;9.77;;;20.10;77.30;;;;;;5117504;28;20351;-73
2023/05/03 11:30:21;;;;;;;11.48;8.95;;;21.30;73.30;;;;;;5100889;28;20029;-73
2023/05/03 11:32:47;;;;;;;11.82;9.27;;;21.70;72.50;;;;;;5119424;28;20028;-73
2023/05/03 11:35:14;;;;;;;10.95;8.43;;;21.30;73.20;;;;;;5118427;28;20438;-73
2023/05/03 11:37:41;;;;;;;15.07;10.00;;;19.80;75.70;;;;;;5098644;28;20112;-74
2023/05/03 11:40:13;;;;;;;15.48;10.45;;;18.80;77.50;;;;;;5115868;28;20031;-73
2023/05/03 11:42:59;;;;;;;13.45;8.77;;;18.40;80.10;;;;;;5119136;28;20047;-73
2023/05/03 11:45:30;;;;;;;13.63;10.00;;;19.00;78.80;;;;;;5102007;28;20037;-73
2023/05/03 11:47:56;;;;;;;12.65;8.57;;;19.60;75.60;;;;;;5119158;28;20019;-73
2023/05/03 11:50:45;;;;;;;15.73;9.65;;;19.60;76.10;;;;;;5118133;28;20401;-73
2023/05/03 11:53:12;;;;;;;14.63;9.45;;;19.40;76.20;;;;;;5118034;28;20024;-73
2023/05/03 11:55:41;;;;;;;12.93;8.93;;;18.80;76.60;;;;;;5115672;28;20053;-73
2023/05/03 11:58:11;;;;;;;11.73;8.30;;;19.00;77.10;;;;;;5119072;28;20035;-73
2023/05/03 12:00:36;;;;;;;10.45;7.70;;;18.70;74.10;;;;;;5118032;28;20058;-73
2023/05/03 12:03:02;;;;;;;10.82;6.60;;;18.90;73.70;;;;;;5119013;28;20020;-73
2023/05/03 12:05:29;;;;;;;10.98;6.70;;;19.50;73.60;;;;;;5117605;28;20055;-73
2023/05/03 12:07:55;;;;;;;9.48;6.00;;;20.20;69.90;;;;;;5117706;28;20102;-73
2023/05/03 12:10:21;;;;;;;9.55;6.50;;;21.10;69.80;;;;;;5117337;28;20406;-73
2023/05/03 12:12:54;;;;;;;9.15;5.45;;;20.70;67.50;;;;;;5118808;28;20073;-73
2023/05/03 12:15:36;;;;;;;9.23;6.05;;;20.50;69.30;;;;;;5117786;28;20107;-73
2023/05/03 12:18:09;;;;;;;9.60;6.20;;;21.10;70.50;;;;;;5117783;28;20028;-73
2023/05/03 12:20:36;;;;;;;28.58;10.38;;;20.80;70.30;;;;;;5117775;28;20390;-73
2023/05/03 12:23:09;;;;;;;10.15;5.57;;;21.00;72.80;;;;;;5117325;28;20440;-73
2023/05/03 12:25:36;;;;;;;8.38;5.72;;;21.10;69.80;;;;;;5116592;28;20054;-73
2023/05/03 12:28:04;;;;;;;22.60;7.85;;;20.50;69.00;;;;;;5118565;28;20028;-73
2023/05/03 12:30:31;;;;;;;12.82;6.35;;;20.50;67.90;;;;;;5099489;28;20031;-73
2023/05/03 12:32:57;;;;;;;9.60;6.13;;;21.00;69.40;;;;;;5118367;28;20031;-73
2023/05/03 12:35:23;;;;;;;15.45;7.20;;;21.90;70.30;;;;;;5117288;28;20125;-73
2023/05/03 12:37:49;;;;;;;12.18;6.57;;;22.40;67.30;;;;;;5116854;28;20020;-73